Terminal Aerodrome Forecast
Issued by NWS Albuquerque, NM

Home | Current Version | Previous Version | Text Only | Print | Product List | Glossary On
Versions: 1 2 3 4 5 6 7 8 9 10 11 12 13 14
132
FTUS45 KABQ 181845 AAA
TAFABQ
TAF AMD
KABQ 181845Z 1819/1918 34007KT P6SM BKN050
     FM182000 22005KT P6SM BKN100
     FM190000 15005KT P6SM SCT120
     FM190700 35005KT P6SM SCT250=

USA.gov is the U.S. government's official web portal to all federal, state and local government web resources and services.